Terminal Aerodrome Forecast
Issued by NWS

Home | Current Version | Previous Version | Text Only | Print | Product List | Glossary On
Versions: 1 2 3 4 5 6 7 8 9 10 11 12 13
000
FTUS43 KGLD 192300 RRA
TAFMCK
TAF
KMCK 192341Z 2000/2024 03011KT P6SM BKN120
     FM200300 03008KT P6SM BKN100
     FM201800 06010KT P6SM BKN050=

USA.gov is the U.S. government's official web portal to all federal, state and local government web resources and services.